UAL209 LFMN-EBCI
Flight info
| Callsign | UAL209 |
|---|---|
| Flight time | 1h 22m |
| Altitude | 30000 |
| Route | IRMAR DCT KINES DCT VANAS DCT MOBLO DCT UBIMA DCT GILIR DCT PENDU DCT IXILU DCT EPL DCT ROUSY M624 DIK Y37 BATTY |
| Aircraft | B738/M-SDE2E3FGHIRWXY/LB1 |
Departure
| Time | 2026-05-07 23:04 |
|---|---|
| Airport | Nice-Côte d'Azur Airport (LFMN) |
Arrival
| Time | 2026-05-08 00:27 |
|---|---|
| Airport | Brussels South Charleroi Airport (EBCI) |
| Time | Latitude | Longitude | Altitude | Speed | Heading |
|---|---|---|---|---|---|
| 2026-05-07 22:50 | 43.66412 | 7.21290 | 19 ft | 0 kts | 2° |
| 2026-05-07 22:57 | 43.66409 | 7.21290 | 19 ft | 2 kts | 2° |
| 2026-05-07 22:57 | 43.66392 | 7.21291 | 18 ft | 2 kts | 350° |
| 2026-05-07 22:57 | 43.66377 | 7.21297 | 18 ft | 2 kts | 333° |
| 2026-05-07 22:57 | 43.66363 | 7.21310 | 18 ft | 2 kts | 307° |
| 2026-05-07 22:58 | 43.66356 | 7.21331 | 17 ft | 2 kts | 282° |
| 2026-05-07 22:58 | 43.66354 | 7.21353 | 17 ft | 2 kts | 265° |
| 2026-05-07 22:58 | 43.66355 | 7.21362 | 17 ft | 0 kts | 260° |
| 2026-05-07 23:00 | 43.66354 | 7.21349 | 17 ft | 5 kts | 260° |
| 2026-05-07 23:00 | 43.66342 | 7.21255 | 17 ft | 14 kts | 261° |
| 2026-05-07 23:00 | 43.66324 | 7.21089 | 19 ft | 20 kts | 259° |
| 2026-05-07 23:01 | 43.66269 | 7.20995 | 20 ft | 13 kts | 178° |
| 2026-05-07 23:01 | 43.66171 | 7.21022 | 21 ft | 16 kts | 169° |
| 2026-05-07 23:01 | 43.66057 | 7.21036 | 18 ft | 16 kts | 207° |
| 2026-05-07 23:01 | 43.65980 | 7.20927 | 20 ft | 16 kts | 230° |
| 2026-05-07 23:02 | 43.65899 | 7.20817 | 19 ft | 18 kts | 222° |
| 2026-05-07 23:02 | 43.65802 | 7.20695 | 19 ft | 20 kts | 223° |
| 2026-05-07 23:02 | 43.65698 | 7.20547 | 17 ft | 23 kts | 225° |
| 2026-05-07 23:02 | 43.65592 | 7.20402 | 17 ft | 21 kts | 224° |
| 2026-05-07 23:03 | 43.65484 | 7.20254 | 17 ft | 22 kts | 226° |
| 2026-05-07 23:03 | 43.65357 | 7.20199 | 17 ft | 21 kts | 156° |
| 2026-05-07 23:03 | 43.65280 | 7.20298 | 16 ft | 13 kts | 136° |
| 2026-05-07 23:03 | 43.65217 | 7.20390 | 19 ft | 13 kts | 115° |
| 2026-05-07 23:04 | 43.65294 | 7.20565 | 18 ft | 52 kts | 44° |
| 2026-05-07 23:04 | 43.65762 | 7.21199 | 22 ft | 133 kts | 45° |
| 2026-05-07 23:04 | 43.66526 | 7.22235 | 402 ft | 168 kts | 44° |
| 2026-05-07 23:04 | 43.67083 | 7.23083 | 800 ft | 189 kts | 50° |
| 2026-05-07 23:05 | 43.67458 | 7.24724 | 2009 ft | 180 kts | 97° |
| 2026-05-07 23:05 | 43.66949 | 7.26398 | 2674 ft | 203 kts | 124° |
| 2026-05-07 23:05 | 43.66029 | 7.27970 | 3134 ft | 216 kts | 131° |
| 2026-05-07 23:05 | 43.65022 | 7.29550 | 3730 ft | 221 kts | 132° |
| 2026-05-07 23:06 | 43.63998 | 7.31165 | 4364 ft | 227 kts | 126° |
| 2026-05-07 23:06 | 43.63455 | 7.33203 | 5042 ft | 231 kts | 89° |
| 2026-05-07 23:06 | 43.63757 | 7.35346 | 5930 ft | 228 kts | 71° |
| 2026-05-07 23:06 | 43.64310 | 7.37411 | 6681 ft | 231 kts | 69° |
| 2026-05-07 23:07 | 43.64897 | 7.39487 | 7424 ft | 233 kts | 69° |
| 2026-05-07 23:07 | 43.65483 | 7.41590 | 8149 ft | 236 kts | 70° |
| 2026-05-07 23:07 | 43.66065 | 7.43723 | 8884 ft | 239 kts | 70° |
| 2026-05-07 23:07 | 43.66650 | 7.45888 | 9630 ft | 242 kts | 71° |
| 2026-05-07 23:08 | 43.67239 | 7.48079 | 9946 ft | 244 kts | 71° |
| 2026-05-07 23:08 | 43.68043 | 7.50214 | 10001 ft | 266 kts | 49° |
| 2026-05-07 23:08 | 43.69608 | 7.51719 | 10007 ft | 290 kts | 20° |
| 2026-05-07 23:08 | 43.71639 | 7.52010 | 10010 ft | 296 kts | 351° |
| 2026-05-07 23:09 | 43.73533 | 7.50960 | 10000 ft | 295 kts | 323° |
| 2026-05-07 23:09 | 43.74833 | 7.48853 | 9999 ft | 294 kts | 295° |
| 2026-05-07 23:09 | 43.75383 | 7.46152 | 10008 ft | 293 kts | 278° |
| 2026-05-07 23:09 | 43.75616 | 7.43354 | 10011 ft | 293 kts | 275° |
| 2026-05-07 23:10 | 43.75798 | 7.40539 | 10003 ft | 294 kts | 275° |
| 2026-05-07 23:10 | 43.76000 | 7.37722 | 10010 ft | 294 kts | 276° |
| 2026-05-07 23:10 | 43.76231 | 7.34906 | 9994 ft | 295 kts | 276° |
| 2026-05-07 23:10 | 43.76476 | 7.32090 | 10001 ft | 295 kts | 276° |
| 2026-05-07 23:11 | 43.76725 | 7.29279 | 9999 ft | 295 kts | 276° |
| 2026-05-07 23:11 | 43.77154 | 7.26510 | 9985 ft | 296 kts | 294° |
| 2026-05-07 23:11 | 43.78336 | 7.24197 | 10042 ft | 300 kts | 318° |
| 2026-05-07 23:11 | 43.80043 | 7.22372 | 10257 ft | 322 kts | 325° |
| 2026-05-07 23:12 | 43.80468 | 7.21956 | 10313 ft | 328 kts | 325° |
| 2026-05-07 23:14 | 43.80710 | 7.21722 | 10336 ft | 331 kts | 325° |
| 2026-05-07 23:15 | 43.82677 | 7.19856 | 10544 ft | 354 kts | 326° |
| 2026-05-07 23:15 | 43.84774 | 7.17880 | 10888 ft | 372 kts | 326° |
| 2026-05-07 23:15 | 43.86930 | 7.15833 | 11552 ft | 378 kts | 325° |
| 2026-05-07 23:15 | 43.89096 | 7.13751 | 12348 ft | 380 kts | 325° |
| 2026-05-07 23:16 | 43.91247 | 7.11654 | 13105 ft | 385 kts | 324° |
| 2026-05-07 23:16 | 43.93443 | 7.09520 | 13900 ft | 386 kts | 324° |
| 2026-05-07 23:16 | 43.95663 | 7.07372 | 14587 ft | 393 kts | 324° |
| 2026-05-07 23:16 | 43.97902 | 7.05192 | 15283 ft | 394 kts | 323° |
| 2026-05-07 23:17 | 44.00141 | 7.02997 | 16075 ft | 394 kts | 324° |
| 2026-05-07 23:17 | 44.02393 | 7.00790 | 16762 ft | 398 kts | 324° |
| 2026-05-07 23:17 | 44.04675 | 6.98552 | 17337 ft | 405 kts | 323° |
| 2026-05-07 23:17 | 44.06992 | 6.96283 | 17891 ft | 409 kts | 323° |
| 2026-05-07 23:18 | 44.09329 | 6.93993 | 18483 ft | 412 kts | 323° |
| 2026-05-07 23:18 | 44.11679 | 6.91674 | 19017 ft | 416 kts | 323° |
| 2026-05-07 23:18 | 44.14142 | 6.89531 | 19533 ft | 422 kts | 334° |
| 2026-05-07 23:18 | 44.16982 | 6.88466 | 20046 ft | 428 kts | 351° |
| 2026-05-07 23:19 | 44.19952 | 6.88017 | 20545 ft | 431 kts | 352° |
| 2026-05-07 23:19 | 44.22953 | 6.87613 | 20969 ft | 435 kts | 352° |
| 2026-05-07 23:19 | 44.25984 | 6.87209 | 21383 ft | 439 kts | 352° |
| 2026-05-07 23:19 | 44.29037 | 6.86788 | 21809 ft | 442 kts | 352° |
| 2026-05-07 23:20 | 44.32107 | 6.86347 | 22272 ft | 445 kts | 351° |
| 2026-05-07 23:20 | 44.35197 | 6.85888 | 22696 ft | 448 kts | 351° |
| 2026-05-07 23:20 | 44.38310 | 6.85417 | 23126 ft | 452 kts | 351° |
| 2026-05-07 23:20 | 44.41447 | 6.84938 | 23536 ft | 455 kts | 351° |
| 2026-05-07 23:21 | 44.44555 | 6.84462 | 23906 ft | 457 kts | 351° |
| 2026-05-07 23:21 | 44.47720 | 6.83977 | 24303 ft | 458 kts | 351° |
| 2026-05-07 23:21 | 44.50898 | 6.83489 | 24663 ft | 461 kts | 350° |
| 2026-05-07 23:21 | 44.54092 | 6.82999 | 25037 ft | 463 kts | 350° |
| 2026-05-07 23:22 | 44.57292 | 6.82508 | 25400 ft | 465 kts | 350° |
| 2026-05-07 23:22 | 44.60516 | 6.82013 | 25723 ft | 467 kts | 350° |
| 2026-05-07 23:22 | 44.63753 | 6.81513 | 26031 ft | 469 kts | 350° |
| 2026-05-07 23:22 | 44.67006 | 6.81012 | 26385 ft | 470 kts | 350° |
| 2026-05-07 23:23 | 44.70264 | 6.80510 | 26726 ft | 472 kts | 350° |
| 2026-05-07 23:23 | 44.73533 | 6.80005 | 27015 ft | 475 kts | 349° |
| 2026-05-07 23:23 | 44.76825 | 6.79493 | 27307 ft | 477 kts | 349° |
| 2026-05-07 23:23 | 44.80130 | 6.78987 | 27598 ft | 479 kts | 350° |
| 2026-05-07 23:24 | 44.83459 | 6.78624 | 27899 ft | 481 kts | 352° |
| 2026-05-07 23:24 | 44.86814 | 6.78401 | 28249 ft | 481 kts | 353° |
| 2026-05-07 23:24 | 44.90160 | 6.78233 | 28675 ft | 480 kts | 353° |
| 2026-05-07 23:24 | 44.93488 | 6.78071 | 29071 ft | 479 kts | 353° |
| 2026-05-07 23:25 | 44.96810 | 6.77895 | 29445 ft | 477 kts | 352° |
| 2026-05-07 23:25 | 45.00126 | 6.77699 | 29745 ft | 477 kts | 352° |
| 2026-05-07 23:25 | 45.03439 | 6.77485 | 30090 ft | 476 kts | 352° |
| 2026-05-07 23:25 | 45.06749 | 6.77265 | 30412 ft | 476 kts | 352° |
| 2026-05-07 23:26 | 45.10050 | 6.77044 | 30734 ft | 475 kts | 352° |
| 2026-05-07 23:26 | 45.13347 | 6.76823 | 31096 ft | 474 kts | 352° |
| 2026-05-07 23:26 | 45.16641 | 6.76603 | 31416 ft | 474 kts | 352° |
| 2026-05-07 23:26 | 45.19930 | 6.76383 | 31748 ft | 473 kts | 351° |
| 2026-05-07 23:27 | 45.26489 | 6.75946 | 32396 ft | 471 kts | 351° |
| 2026-05-07 23:27 | 45.29760 | 6.75729 | 32668 ft | 470 kts | 352° |
| 2026-05-07 23:27 | 45.33018 | 6.75513 | 32951 ft | 469 kts | 351° |
| 2026-05-07 23:28 | 45.36281 | 6.75299 | 33231 ft | 469 kts | 352° |
| 2026-05-07 23:28 | 45.39540 | 6.75094 | 33542 ft | 468 kts | 352° |
| 2026-05-07 23:28 | 45.42792 | 6.74889 | 33892 ft | 467 kts | 352° |
| 2026-05-07 23:28 | 45.46033 | 6.74685 | 34200 ft | 465 kts | 352° |
| 2026-05-07 23:29 | 45.49266 | 6.74474 | 34416 ft | 465 kts | 352° |
| 2026-05-07 23:29 | 45.52506 | 6.74255 | 34603 ft | 467 kts | 352° |
| 2026-05-07 23:29 | 45.55753 | 6.74032 | 34798 ft | 467 kts | 352° |
| 2026-05-07 23:29 | 45.58997 | 6.73807 | 35083 ft | 466 kts | 352° |
| 2026-05-07 23:30 | 45.62222 | 6.73588 | 35326 ft | 465 kts | 353° |
| 2026-05-07 23:30 | 45.65460 | 6.73369 | 35482 ft | 465 kts | 353° |
| 2026-05-07 23:30 | 45.68687 | 6.73149 | 35714 ft | 464 kts | 353° |
| 2026-05-07 23:30 | 45.71860 | 6.72932 | 35977 ft | 463 kts | 353° |
| 2026-05-07 23:31 | 45.75086 | 6.72709 | 36080 ft | 465 kts | 353° |
| 2026-05-07 23:31 | 45.78330 | 6.72486 | 36224 ft | 467 kts | 353° |
| 2026-05-07 23:31 | 45.81576 | 6.72264 | 36462 ft | 466 kts | 353° |
| 2026-05-07 23:31 | 45.84811 | 6.72043 | 36704 ft | 465 kts | 353° |
| 2026-05-07 23:32 | 45.88043 | 6.71821 | 36863 ft | 465 kts | 353° |
| 2026-05-07 23:32 | 45.91270 | 6.71597 | 37014 ft | 466 kts | 354° |
| 2026-05-07 23:32 | 45.94511 | 6.71371 | 37180 ft | 466 kts | 354° |
| 2026-05-07 23:32 | 45.97752 | 6.71144 | 37384 ft | 466 kts | 354° |
| 2026-05-07 23:33 | 46.00987 | 6.70918 | 37603 ft | 465 kts | 354° |
| 2026-05-07 23:33 | 46.04220 | 6.70691 | 37744 ft | 466 kts | 354° |
| 2026-05-07 23:33 | 46.07461 | 6.70464 | 37846 ft | 466 kts | 354° |
| 2026-05-07 23:33 | 46.10693 | 6.70222 | 38019 ft | 464 kts | 352° |
| 2026-05-07 23:34 | 46.16931 | 6.68227 | 38053 ft | 459 kts | 338° |
| 2026-05-07 23:34 | 46.22962 | 6.65218 | 38043 ft | 459 kts | 337° |
| 2026-05-07 23:35 | 46.29007 | 6.62176 | 38040 ft | 461 kts | 338° |
| 2026-05-07 23:35 | 46.35079 | 6.59180 | 38037 ft | 461 kts | 338° |
| 2026-05-07 23:36 | 46.41157 | 6.56207 | 38039 ft | 461 kts | 338° |
| 2026-05-07 23:36 | 46.47219 | 6.53241 | 38031 ft | 460 kts | 338° |
| 2026-05-07 23:37 | 46.53272 | 6.50269 | 38041 ft | 458 kts | 338° |
| 2026-05-07 23:37 | 46.59267 | 6.47317 | 38039 ft | 457 kts | 338° |
| 2026-05-07 23:38 | 46.65281 | 6.44348 | 38048 ft | 456 kts | 338° |
| 2026-05-07 23:38 | 46.71290 | 6.41375 | 38050 ft | 455 kts | 338° |
| 2026-05-07 23:39 | 46.77284 | 6.38402 | 38065 ft | 455 kts | 338° |
| 2026-05-07 23:39 | 46.83275 | 6.35423 | 38048 ft | 455 kts | 338° |
| 2026-05-07 23:40 | 46.89252 | 6.32444 | 38052 ft | 454 kts | 338° |
| 2026-05-07 23:40 | 46.95227 | 6.29457 | 38059 ft | 453 kts | 338° |
| 2026-05-07 23:41 | 47.01197 | 6.26466 | 38058 ft | 453 kts | 338° |
| 2026-05-07 23:41 | 47.07136 | 6.23409 | 38060 ft | 451 kts | 333° |
| 2026-05-07 23:42 | 47.12776 | 6.19449 | 38069 ft | 448 kts | 329° |
| 2026-05-07 23:42 | 47.18337 | 6.15304 | 38058 ft | 449 kts | 330° |
| 2026-05-07 23:43 | 47.23940 | 6.11224 | 38061 ft | 450 kts | 330° |
| 2026-05-07 23:43 | 47.29562 | 6.07170 | 38058 ft | 450 kts | 330° |
| 2026-05-07 23:44 | 47.35433 | 6.03909 | 38060 ft | 456 kts | 345° |
| 2026-05-07 23:44 | 47.41793 | 6.03217 | 38072 ft | 462 kts | 358° |
| 2026-05-07 23:45 | 47.48226 | 6.03480 | 38068 ft | 463 kts | 358° |
| 2026-05-07 23:45 | 47.54667 | 6.03705 | 38047 ft | 463 kts | 358° |
| 2026-05-07 23:46 | 47.61104 | 6.03848 | 38053 ft | 463 kts | 358° |
| 2026-05-07 23:46 | 47.67554 | 6.03972 | 38062 ft | 464 kts | 357° |
| 2026-05-07 23:47 | 47.74008 | 6.04104 | 38057 ft | 464 kts | 358° |
| 2026-05-07 23:47 | 47.80467 | 6.04287 | 38055 ft | 464 kts | 358° |
| 2026-05-07 23:48 | 47.86885 | 6.04500 | 38051 ft | 464 kts | 358° |
| 2026-05-07 23:48 | 47.93380 | 6.04709 | 38061 ft | 464 kts | 358° |
| 2026-05-07 23:49 | 47.99795 | 6.04909 | 38064 ft | 464 kts | 358° |
| 2026-05-07 23:49 | 48.06255 | 6.05109 | 38062 ft | 464 kts | 358° |
| 2026-05-07 23:50 | 48.12714 | 6.05310 | 38065 ft | 464 kts | 358° |
| 2026-05-07 23:50 | 48.19163 | 6.05510 | 38073 ft | 464 kts | 358° |
| 2026-05-07 23:51 | 48.25619 | 6.05710 | 38069 ft | 464 kts | 358° |
| 2026-05-07 23:51 | 48.32066 | 6.05913 | 38070 ft | 464 kts | 358° |
| 2026-05-07 23:52 | 48.38516 | 6.06193 | 38074 ft | 464 kts | 359° |
| 2026-05-07 23:52 | 48.44961 | 6.06520 | 38073 ft | 464 kts | 359° |
| 2026-05-07 23:53 | 48.50754 | 6.06810 | 38061 ft | 456 kts | 359° |
| 2026-05-07 23:55 | 48.52442 | 6.06893 | 38065 ft | 452 kts | 359° |
| 2026-05-07 23:55 | 48.55606 | 6.07047 | 38069 ft | 449 kts | 359° |
| 2026-05-07 23:56 | 48.59449 | 6.07231 | 38070 ft | 447 kts | 359° |
| 2026-05-07 23:57 | 48.65642 | 6.07525 | 38079 ft | 444 kts | 359° |
| 2026-05-07 23:57 | 48.71794 | 6.07818 | 38077 ft | 443 kts | 359° |
| 2026-05-07 23:58 | 48.77957 | 6.08110 | 38088 ft | 449 kts | 359° |
| 2026-05-07 23:58 | 48.84246 | 6.08412 | 38081 ft | 454 kts | 359° |
| 2026-05-07 23:59 | 48.90588 | 6.08719 | 38085 ft | 458 kts | 359° |
| 2026-05-07 23:59 | 48.96951 | 6.09028 | 38072 ft | 456 kts | 359° |
| 2026-05-08 00:00 | 49.03228 | 6.09337 | 38064 ft | 447 kts | 359° |
| 2026-05-08 00:00 | 49.09445 | 6.09638 | 38075 ft | 446 kts | 359° |
| 2026-05-08 00:01 | 49.15651 | 6.09939 | 38078 ft | 446 kts | 359° |
| 2026-05-08 00:01 | 49.21860 | 6.10241 | 38077 ft | 446 kts | 359° |
| 2026-05-08 00:02 | 49.28077 | 6.10545 | 38077 ft | 447 kts | 359° |
| 2026-05-08 00:02 | 49.33661 | 6.10819 | 38078 ft | 449 kts | 359° |
| 2026-05-08 00:03 | 49.39911 | 6.11125 | 38073 ft | 450 kts | 359° |
| 2026-05-08 00:03 | 49.46173 | 6.11433 | 38085 ft | 451 kts | 359° |
| 2026-05-08 00:04 | 49.49315 | 6.11583 | 37979 ft | 454 kts | 359° |
| 2026-05-08 00:04 | 49.52501 | 6.11713 | 37447 ft | 459 kts | 358° |
| 2026-05-08 00:04 | 49.55688 | 6.11835 | 36911 ft | 457 kts | 358° |
| 2026-05-08 00:04 | 49.58861 | 6.11953 | 36365 ft | 455 kts | 358° |
| 2026-05-08 00:05 | 49.62026 | 6.12072 | 35807 ft | 455 kts | 358° |
| 2026-05-08 00:05 | 49.65148 | 6.12191 | 35222 ft | 455 kts | 358° |
| 2026-05-08 00:05 | 49.68313 | 6.12313 | 34621 ft | 455 kts | 359° |
| 2026-05-08 00:05 | 49.71519 | 6.12436 | 33952 ft | 456 kts | 358° |
| 2026-05-08 00:06 | 49.74655 | 6.12558 | 33244 ft | 457 kts | 359° |
| 2026-05-08 00:06 | 49.77834 | 6.12681 | 32568 ft | 457 kts | 359° |
| 2026-05-08 00:06 | 49.81007 | 6.12805 | 31906 ft | 456 kts | 359° |
| 2026-05-08 00:06 | 49.84179 | 6.12924 | 31225 ft | 456 kts | 358° |
| 2026-05-08 00:07 | 49.87334 | 6.12663 | 30536 ft | 453 kts | 349° |
| 2026-05-08 00:07 | 49.90418 | 6.11716 | 29782 ft | 451 kts | 345° |
| 2026-05-08 00:07 | 49.93476 | 6.10611 | 28968 ft | 451 kts | 344° |
| 2026-05-08 00:07 | 49.96516 | 6.09478 | 28201 ft | 450 kts | 344° |
| 2026-05-08 00:08 | 49.99558 | 6.08348 | 27413 ft | 449 kts | 345° |
| 2026-05-08 00:08 | 50.02606 | 6.07233 | 26579 ft | 450 kts | 345° |
| 2026-05-08 00:08 | 50.05656 | 6.06134 | 25827 ft | 449 kts | 345° |
| 2026-05-08 00:08 | 50.08672 | 6.05059 | 25276 ft | 443 kts | 345° |
| 2026-05-08 00:09 | 50.11666 | 6.03997 | 24677 ft | 439 kts | 345° |
| 2026-05-08 00:09 | 50.14633 | 6.02946 | 24099 ft | 435 kts | 345° |
| 2026-05-08 00:09 | 50.17573 | 6.01903 | 23495 ft | 431 kts | 345° |
| 2026-05-08 00:09 | 50.20489 | 6.00866 | 22823 ft | 428 kts | 345° |
| 2026-05-08 00:10 | 50.23377 | 5.99838 | 22227 ft | 423 kts | 345° |
| 2026-05-08 00:10 | 50.26231 | 5.98820 | 21642 ft | 418 kts | 345° |
| 2026-05-08 00:10 | 50.29053 | 5.97812 | 21064 ft | 414 kts | 346° |
| 2026-05-08 00:10 | 50.31849 | 5.96812 | 20482 ft | 410 kts | 346° |
| 2026-05-08 00:11 | 50.34619 | 5.95820 | 19929 ft | 407 kts | 346° |
| 2026-05-08 00:11 | 50.37366 | 5.94834 | 19370 ft | 403 kts | 346° |
| 2026-05-08 00:11 | 50.40087 | 5.93857 | 18826 ft | 401 kts | 346° |
| 2026-05-08 00:11 | 50.42795 | 5.92883 | 18255 ft | 398 kts | 346° |
| 2026-05-08 00:12 | 50.45486 | 5.91914 | 17617 ft | 395 kts | 346° |
| 2026-05-08 00:12 | 50.48122 | 5.90964 | 17046 ft | 392 kts | 346° |
| 2026-05-08 00:12 | 50.50769 | 5.90007 | 16496 ft | 388 kts | 346° |
| 2026-05-08 00:12 | 50.53392 | 5.89059 | 15953 ft | 385 kts | 346° |
| 2026-05-08 00:13 | 50.55994 | 5.88118 | 15414 ft | 382 kts | 346° |
| 2026-05-08 00:13 | 50.58571 | 5.87187 | 14885 ft | 379 kts | 346° |
| 2026-05-08 00:13 | 50.61066 | 5.85940 | 14338 ft | 375 kts | 330° |
| 2026-05-08 00:13 | 50.63108 | 5.83475 | 13829 ft | 369 kts | 310° |
| 2026-05-08 00:14 | 50.64485 | 5.80121 | 13245 ft | 364 kts | 292° |
| 2026-05-08 00:14 | 50.65158 | 5.76316 | 12675 ft | 360 kts | 275° |
| 2026-05-08 00:14 | 50.65308 | 5.72413 | 12164 ft | 356 kts | 271° |
| 2026-05-08 00:14 | 50.65375 | 5.68523 | 11633 ft | 354 kts | 271° |
| 2026-05-08 00:15 | 50.65424 | 5.64657 | 11158 ft | 351 kts | 271° |
| 2026-05-08 00:15 | 50.65475 | 5.60887 | 11032 ft | 338 kts | 271° |
| 2026-05-08 00:15 | 50.65532 | 5.57249 | 10880 ft | 326 kts | 271° |
| 2026-05-08 00:15 | 50.65593 | 5.53732 | 10743 ft | 316 kts | 271° |
| 2026-05-08 00:16 | 50.65655 | 5.50332 | 10611 ft | 306 kts | 271° |
| 2026-05-08 00:16 | 50.65716 | 5.47030 | 10485 ft | 297 kts | 271° |
| 2026-05-08 00:16 | 50.65776 | 5.43826 | 10370 ft | 288 kts | 271° |
| 2026-05-08 00:16 | 50.65835 | 5.40717 | 10249 ft | 280 kts | 271° |
| 2026-05-08 00:17 | 50.65890 | 5.37694 | 10128 ft | 272 kts | 271° |
| 2026-05-08 00:17 | 50.65944 | 5.34742 | 9900 ft | 269 kts | 271° |
| 2026-05-08 00:17 | 50.65996 | 5.31804 | 9608 ft | 267 kts | 271° |
| 2026-05-08 00:17 | 50.66048 | 5.28883 | 9302 ft | 266 kts | 271° |
| 2026-05-08 00:18 | 50.66100 | 5.25990 | 9060 ft | 263 kts | 271° |
| 2026-05-08 00:18 | 50.66150 | 5.23122 | 8793 ft | 261 kts | 271° |
| 2026-05-08 00:18 | 50.66198 | 5.20304 | 8530 ft | 260 kts | 271° |
| 2026-05-08 00:18 | 50.66246 | 5.17463 | 8260 ft | 259 kts | 271° |
| 2026-05-08 00:19 | 50.66095 | 5.14663 | 7956 ft | 257 kts | 250° |
| 2026-05-08 00:19 | 50.65373 | 5.12071 | 7736 ft | 261 kts | 245° |
| 2026-05-08 00:19 | 50.64605 | 5.09444 | 7457 ft | 266 kts | 245° |
| 2026-05-08 00:19 | 50.63836 | 5.06783 | 7161 ft | 267 kts | 245° |
| 2026-05-08 00:20 | 50.63067 | 5.04129 | 6896 ft | 266 kts | 245° |
| 2026-05-08 00:20 | 50.62299 | 5.01493 | 6640 ft | 264 kts | 245° |
| 2026-05-08 00:20 | 50.61535 | 4.98874 | 6383 ft | 262 kts | 245° |
| 2026-05-08 00:20 | 50.60777 | 4.96275 | 6127 ft | 260 kts | 245° |
| 2026-05-08 00:21 | 50.60023 | 4.93693 | 5868 ft | 258 kts | 245° |
| 2026-05-08 00:21 | 50.59276 | 4.91139 | 5612 ft | 256 kts | 245° |
| 2026-05-08 00:21 | 50.58533 | 4.88599 | 5385 ft | 255 kts | 244° |
| 2026-05-08 00:21 | 50.57794 | 4.86074 | 5123 ft | 253 kts | 244° |
| 2026-05-08 00:22 | 50.57062 | 4.83569 | 4880 ft | 252 kts | 244° |
| 2026-05-08 00:22 | 50.56326 | 4.81058 | 4584 ft | 252 kts | 244° |
| 2026-05-08 00:22 | 50.55599 | 4.78582 | 4322 ft | 246 kts | 244° |
| 2026-05-08 00:22 | 50.54889 | 4.76163 | 4094 ft | 240 kts | 242° |
| 2026-05-08 00:23 | 50.54226 | 4.73824 | 4008 ft | 228 kts | 246° |
| 2026-05-08 00:23 | 50.53620 | 4.71555 | 3940 ft | 226 kts | 245° |
| 2026-05-08 00:23 | 50.52966 | 4.69264 | 3696 ft | 232 kts | 244° |
| 2026-05-08 00:23 | 50.52295 | 4.66961 | 3377 ft | 232 kts | 244° |
| 2026-05-08 00:24 | 50.51628 | 4.64685 | 3066 ft | 228 kts | 242° |
| 2026-05-08 00:24 | 50.50975 | 4.62441 | 2787 ft | 224 kts | 244° |
| 2026-05-08 00:24 | 50.50325 | 4.60200 | 2430 ft | 226 kts | 244° |
| 2026-05-08 00:24 | 50.49679 | 4.58022 | 2130 ft | 214 kts | 245° |
| 2026-05-08 00:25 | 50.49094 | 4.55975 | 1904 ft | 196 kts | 245° |
| 2026-05-08 00:25 | 50.48548 | 4.54109 | 1593 ft | 181 kts | 245° |
| 2026-05-08 00:25 | 50.48055 | 4.52404 | 1359 ft | 163 kts | 246° |
| 2026-05-08 00:25 | 50.47610 | 4.50866 | 1166 ft | 151 kts | 245° |
| 2026-05-08 00:26 | 50.47176 | 4.49386 | 949 ft | 147 kts | 245° |
| 2026-05-08 00:26 | 50.46750 | 4.47915 | 755 ft | 148 kts | 246° |
| 2026-05-08 00:26 | 50.46333 | 4.46466 | 610 ft | 137 kts | 246° |
| 2026-05-08 00:26 | 50.45982 | 4.45265 | 595 ft | 104 kts | 245° |
| 2026-05-08 00:27 | 50.45816 | 4.44707 | 611 ft | 31 kts | 246° |
| 2026-05-08 00:27 | 50.45731 | 4.44407 | 614 ft | 27 kts | 245° |
| 2026-05-08 00:27 | 50.45664 | 4.44162 | 610 ft | 22 kts | 248° |
| 2026-05-08 00:27 | 50.45663 | 4.44000 | 616 ft | 15 kts | 340° |
| 2026-05-08 00:28 | 50.45735 | 4.44079 | 621 ft | 9 kts | 52° |
| 2026-05-08 00:28 | 50.45770 | 4.44148 | 614 ft | 12 kts | 49° |
| 2026-05-08 00:28 | 50.45842 | 4.44294 | 613 ft | 20 kts | 54° |
| 2026-05-08 00:28 | 50.45936 | 4.44498 | 612 ft | 25 kts | 69° |
| 2026-05-08 00:29 | 50.46012 | 4.44759 | 601 ft | 29 kts | 65° |
| 2026-05-08 00:29 | 50.46107 | 4.45076 | 598 ft | 35 kts | 68° |
| 2026-05-08 00:29 | 50.46210 | 4.45430 | 594 ft | 37 kts | 68° |
| 2026-05-08 00:29 | 50.46313 | 4.45798 | 589 ft | 34 kts | 66° |
| 2026-05-08 00:30 | 50.46392 | 4.46061 | 586 ft | 24 kts | 65° |
| 2026-05-08 00:30 | 50.46467 | 4.46326 | 583 ft | 29 kts | 66° |
| 2026-05-08 00:30 | 50.46559 | 4.46637 | 579 ft | 28 kts | 66° |
| 2026-05-08 00:30 | 50.46640 | 4.46905 | 579 ft | 28 kts | 66° |
| 2026-05-08 00:31 | 50.46715 | 4.47181 | 581 ft | 28 kts | 66° |
| 2026-05-08 00:31 | 50.46794 | 4.47349 | 579 ft | 12 kts | 357° |
| 2026-05-08 00:31 | 50.46853 | 4.47277 | 579 ft | 8 kts | 271° |
| 2026-05-08 00:31 | 50.46841 | 4.47210 | 581 ft | 6 kts | 247° |
| 2026-05-08 00:32 | 50.46824 | 4.47145 | 579 ft | 7 kts | 252° |
| 2026-05-08 00:32 | 50.46847 | 4.47114 | 577 ft | 6 kts | 338° |
| 2026-05-08 00:32 | 50.46866 | 4.47103 | 577 ft | 0 kts | 338° |